Terminal Aerodrome Forecast
Issued by NWS

Home | Current Version | Previous Version | Text Only | Print | Product List | Glossary On
Versions: 1 2 3 4 5 6 7 8 9 10 11
000
FTUS42 KMLB 140528
TAFSFB
TAF
KSFB 140528Z 1406/1506 23004KT P6SM SCT250
     FM141500 23008KT P6SM SCT040
     FM141800 24008KT P6SM BKN040
     FM150000 22005KT P6SM BKN040=

USA.gov is the U.S. government's official web portal to all federal, state and local government web resources and services.